Time;durP1;ratioP1;P1;durP2;ratioP2;P2;SDS_P1;SDS_P2;PMS_P1;PMS_P2;Temp;Humidity;BMP_temperature;BMP_pressure;BME280_temperature;BME280_humidity;BME280_pressure;Samples;Min_cycle;Max_cycle;Signal;HPM_P1;HPM_P2
2020/12/13 00:02:08;;;;;;;24.15;11.93;;;;;;;6.06;86.37;98023.00;1780648;80;21172;-80
2020/12/13 00:04:37;;;;;;;20.55;10.58;;;;;;;6.05;86.55;98024.74;1799969;79;21197;-80
2020/12/13 00:07:07;;;;;;;27.82;11.55;;;;;;;6.06;86.47;98025.13;1791188;80;21476;-80
2020/12/13 00:09:34;;;;;;;21.93;11.83;;;;;;;6.03;86.78;98031.67;1791665;80;21157;-80
2020/12/13 00:12:05;;;;;;;23.50;11.30;;;;;;;6.03;86.62;98028.22;1793559;79;21161;-79
2020/12/13 00:14:39;;;;;;;25.27;11.95;;;;;;;6.07;86.79;98026.84;1801196;78;22910;-81
2020/12/13 00:17:07;;;;;;;23.22;12.25;;;;;;;6.03;86.88;98027.80;1745834;81;21165;-80
2020/12/13 00:19:34;;;;;;;22.93;12.20;;;;;;;6.00;87.08;98026.57;1777624;80;21177;-82
2020/12/13 00:22:02;;;;;;;24.35;12.85;;;;;;;5.98;86.95;98025.77;1768944;80;21181;-78
2020/12/13 00:24:29;;;;;;;23.83;12.58;;;;;;;5.98;87.08;98025.77;1813689;78;21098;-81
2020/12/13 00:26:56;;;;;;;25.70;13.10;;;;;;;5.96;86.78;98030.95;1806333;78;21153;-79
2020/12/13 00:29:24;;;;;;;22.70;10.78;;;;;;;5.95;87.15;98029.27;1812711;78;21177;-80
2020/12/13 00:31:52;;;;;;;27.13;11.65;;;;;;;5.96;87.11;98033.98;1806529;78;21171;-79
2020/12/13 00:34:19;;;;;;;24.10;11.85;;;;;;;5.96;87.35;98029.66;1804211;78;21179;-80
2020/12/13 00:36:51;;;;;;;23.65;11.50;;;;;;;5.96;87.10;98030.95;1804960;78;21144;-81
2020/12/13 00:39:19;;;;;;;26.42;12.33;;;;;;;5.99;87.08;98037.79;1814290;78;21151;-80
2020/12/13 00:41:51;;;;;;;24.57;11.88;;;;;;;6.01;87.12;98036.44;1803871;78;21113;-80
2020/12/13 00:44:20;;;;;;;29.55;12.20;;;;;;;6.02;87.19;98035.13;1814411;78;21137;-79
2020/12/13 00:46:48;;;;;;;25.65;12.63;;;;;;;6.07;87.29;98034.58;1811728;78;21581;-79
2020/12/13 00:49:16;;;;;;;21.37;11.48;;;;;;;6.10;87.09;98032.36;1812061;78;21137;-80
2020/12/13 00:51:45;;;;;;;29.87;11.78;;;;;;;6.13;87.10;98036.17;1807741;78;21117;-80
2020/12/13 00:54:12;;;;;;;26.42;12.37;;;;;;;6.15;87.12;98027.50;1806807;78;21125;-79
2020/12/13 00:56:45;;;;;;;24.72;11.85;;;;;;;6.21;87.15;98037.25;1804663;78;21152;-80
2020/12/13 00:59:13;;;;;;;22.27;11.53;;;;;;;6.22;87.06;98037.22;1810741;78;21113;-79
2020/12/13 01:01:41;;;;;;;27.25;13.55;;;;;;;6.25;87.08;98034.58;1808152;78;21136;-78
2020/12/13 01:04:08;;;;;;;21.40;12.35;;;;;;;6.29;87.09;98036.65;1808035;78;21138;-81
2020/12/13 01:06:35;;;;;;;27.50;13.28;;;;;;;6.29;86.93;98035.36;1812117;78;21124;-80
2020/12/13 01:09:03;;;;;;;28.42;13.45;;;;;;;6.29;86.96;98034.91;1811624;78;21770;-80
2020/12/13 01:11:33;;;;;;;27.35;14.13;;;;;;;6.30;86.82;98039.16;1802767;78;21148;-80
2020/12/13 01:14:01;;;;;;;25.45;14.00;;;;;;;6.29;86.80;98040.07;1802010;78;21688;-80
2020/12/13 01:16:30;;;;;;;26.12;14.60;;;;;;;6.29;86.81;98033.61;1801972;79;21145;-79
2020/12/13 01:18:59;;;;;;;28.95;14.83;;;;;;;6.29;86.84;98043.10;1797716;79;21165;-79
2020/12/13 01:21:30;;;;;;;29.75;13.43;;;;;;;6.26;86.86;98041.87;1799607;79;21680;-80
2020/12/13 01:23:58;;;;;;;28.52;13.18;;;;;;;6.25;86.90;98042.77;1799543;79;21181;-80
2020/12/13 01:26:27;;;;;;;28.57;14.73;;;;;;;6.24;87.02;98047.52;1795483;79;21911;-79
2020/12/13 01:28:55;;;;;;;30.55;13.45;;;;;;;6.21;86.97;98040.70;1799949;79;21157;-79
2020/12/13 01:31:23;;;;;;;31.65;13.83;;;;;;;6.18;87.00;98042.89;1797287;79;21152;-80
2020/12/13 01:33:53;;;;;;;24.37;13.18;;;;;;;6.15;86.76;98044.27;1797364;79;21137;-80
2020/12/13 01:36:23;;;;;;;26.97;14.28;;;;;;;6.10;86.97;98046.11;1760622;80;21776;-78
2020/12/13 01:38:52;;;;;;;26.55;12.35;;;;;;;6.07;87.13;98047.48;1798694;79;21960;-80
2020/12/13 01:41:21;;;;;;;32.93;12.55;;;;;;;6.05;87.18;98051.84;1761756;80;21174;-80
2020/12/13 01:44:05;;;;;;;27.25;12.18;;;;;;;6.03;87.07;98054.89;1797764;79;21165;-79
2020/12/13 01:46:33;;;;;;;;;;;;;;;6.02;87.02;98053.19;1800836;79;21149;-80
2020/12/13 01:49:09;;;;;;;28.80;14.43;;;;;;;6.02;87.33;98050.60;1801673;79;20143;-79
2020/12/13 01:54:25;;;;;;;28.85;12.65;;;;;;;6.04;87.14;98056.58;1797781;79;21133;-83
2020/12/13 01:56:56;;;;;;;26.73;12.28;;;;;;;6.05;87.28;98057.41;1796444;79;21125;-80
2020/12/13 01:59:26;;;;;;;26.05;11.78;;;;;;;6.05;87.44;98057.00;1792595;79;21156;-81
2020/12/13 02:02:02;;;;;;;23.10;11.53;;;;;;;6.08;87.14;98054.33;1797364;79;21098;-80
2020/12/13 02:04:34;;;;;;;23.98;10.95;;;;;;;6.07;87.23;98058.22;1795978;79;21164;-81
2020/12/13 02:07:04;;;;;;;20.13;10.97;;;;;;;6.06;87.19;98054.80;1797632;79;21652;-79
2020/12/13 02:09:32;;;;;;;26.40;11.28;;;;;;;6.05;87.47;98058.28;1799497;79;21652;-77
2020/12/13 02:11:59;;;;;;;22.85;11.50;;;;;;;6.05;87.36;98057.00;1762234;80;21169;-79
2020/12/13 02:14:26;;;;;;;24.77;11.53;;;;;;;6.06;87.22;98054.80;1804236;78;22197;-80
2020/12/13 02:16:54;;;;;;;22.35;11.50;;;;;;;6.04;87.08;98064.31;1803978;78;21648;-81
2020/12/13 02:19:22;;;;;;;23.57;13.00;;;;;;;6.04;86.89;98059.61;1804158;78;21146;-79
2020/12/13 02:21:51;;;;;;;24.10;11.97;;;;;;;6.00;87.00;98057.98;1813611;78;21161;-79
2020/12/13 02:24:20;;;;;;;24.20;12.65;;;;;;;5.97;87.07;98058.46;1813271;78;21168;-80
2020/12/13 02:26:48;;;;;;;27.22;12.82;;;;;;;5.94;87.12;98065.38;1809433;78;21125;-80
2020/12/13 02:29:16;;;;;;;23.57;12.63;;;;;;;5.89;86.88;98072.37;1813216;78;21608;-78
2020/12/13 02:31:44;;;;;;;27.50;12.28;;;;;;;5.86;86.41;98068.58;1812622;78;21550;-80
2020/12/13 02:34:12;;;;;;;23.75;12.73;;;;;;;5.80;86.12;98068.27;1808083;78;22311;-80
2020/12/13 02:36:39;;;;;;;31.05;14.05;;;;;;;5.70;87.33;98064.20;1810871;78;21144;-80
2020/12/13 02:39:08;;;;;;;26.57;13.62;;;;;;;5.65;86.63;98064.73;1811920;78;21144;-81
2020/12/13 02:41:36;;;;;;;25.68;12.10;;;;;;;5.63;86.47;98066.08;1807446;78;21152;-78
2020/12/13 02:44:03;;;;;;;26.68;12.68;;;;;;;5.54;87.47;98063.69;1805186;78;21160;-80
2020/12/13 02:46:31;;;;;;;29.40;13.55;;;;;;;5.50;87.25;98066.77;1806440;78;21176;-79
2020/12/13 02:48:58;;;;;;;35.10;14.20;;;;;;;5.51;86.44;98066.31;1811115;78;21148;-78
2020/12/13 02:51:27;;;;;;;31.87;14.30;;;;;;;5.48;87.08;98067.69;1806798;78;21596;-81
2020/12/13 02:53:54;;;;;;;30.55;14.03;;;;;;;5.49;87.29;98070.66;1810431;78;21152;-80
2020/12/13 02:56:21;;;;;;;27.25;13.40;;;;;;;5.50;87.07;98073.21;1809887;78;21188;-79
2020/12/13 02:58:49;;;;;;;26.95;12.85;;;;;;;5.50;87.80;98067.22;1814073;78;21141;-78
2020/12/13 03:01:17;;;;;;;25.23;12.53;;;;;;;5.53;87.62;98067.13;1805612;78;21152;-77
2020/12/13 03:03:46;;;;;;;25.72;12.63;;;;;;;5.57;87.91;98072.21;1806061;78;21152;-77
2020/12/13 03:06:13;;;;;;;24.80;12.63;;;;;;;5.62;88.46;98065.66;1808410;78;21154;-80
2020/12/13 03:08:40;;;;;;;25.62;12.28;;;;;;;5.64;88.25;98075.50;1803508;78;21144;-79
2020/12/13 03:11:07;;;;;;;22.67;12.00;;;;;;;5.68;88.19;98069.84;1811507;78;21148;-83
2020/12/13 03:13:36;;;;;;;25.68;11.88;;;;;;;5.71;88.09;98071.05;1804993;78;21193;-80
2020/12/13 03:16:03;;;;;;;24.80;11.48;;;;;;;5.75;88.03;98075.28;1803112;78;21164;-79
2020/12/13 03:18:31;;;;;;;29.20;12.65;;;;;;;5.76;88.02;98064.06;1806048;78;21250;-80
2020/12/13 03:20:58;;;;;;;24.27;12.43;;;;;;;5.78;87.81;98069.59;1806698;78;21161;-80
2020/12/13 03:23:26;;;;;;;24.63;13.35;;;;;;;5.73;87.97;98068.86;1812725;78;21152;-80
2020/12/13 03:25:54;;;;;;;23.35;12.35;;;;;;;5.80;87.85;98074.72;1805338;78;21113;-79
2020/12/13 03:28:21;;;;;;;28.30;14.03;;;;;;;5.81;88.05;98075.56;1812061;77;21628;-81
2020/12/13 03:30:48;;;;;;;25.50;12.55;;;;;;;5.80;88.18;98077.30;1806899;78;21601;-80
2020/12/13 03:33:16;;;;;;;25.65;12.98;;;;;;;5.80;87.74;98081.62;1807415;78;21664;-80
2020/12/13 03:35:43;;;;;;;28.38;13.60;;;;;;;5.77;87.19;98076.94;1807109;78;21406;-80
2020/12/13 03:38:11;;;;;;;25.95;13.62;;;;;;;5.70;88.04;98078.39;1806090;78;21821;-80
2020/12/13 03:40:38;;;;;;;34.38;14.80;;;;;;;5.66;87.25;98071.16;1811744;78;21168;-79
2020/12/13 03:43:05;;;;;;;32.03;15.40;;;;;;;5.59;87.39;98081.21;1807248;78;21152;-80
2020/12/13 03:45:33;;;;;;;29.92;14.15;;;;;;;5.54;86.81;98077.87;1806775;78;21291;-79
2020/12/13 03:48:01;;;;;;;29.45;14.38;;;;;;;5.46;87.16;98078.47;1816440;78;21163;-79
2020/12/13 03:50:38;;;;;;;33.00;14.15;;;;;;;5.41;88.27;98078.55;1804220;78;21145;-79
2020/12/13 03:52:57;;;;;;;34.88;14.85;;;;;;;5.38;87.51;98076.89;1811477;78;21153;-79
2020/12/13 03:55:24;;;;;;;28.57;13.03;;;;;;;5.32;88.92;98087.33;1804942;78;21814;-80
2020/12/13 03:57:53;;;;;;;35.03;15.63;;;;;;;5.33;89.08;98086.46;1807029;78;21140;-80
2020/12/13 04:00:20;;;;;;;35.45;16.45;;;;;;;5.31;89.59;98097.24;1814144;78;21144;-80
2020/12/13 04:02:47;;;;;;;37.38;18.23;;;;;;;5.32;89.32;98093.77;1807377;78;21144;-80
2020/12/13 04:05:15;;;;;;;32.60;15.63;;;;;;;5.34;89.54;98095.03;1811180;78;21627;-80
2020/12/13 04:07:43;;;;;;;29.48;14.83;;;;;;;5.34;89.41;98098.91;1805453;78;21607;-80
2020/12/13 04:10:10;;;;;;;30.00;14.68;;;;;;;5.32;89.91;98096.80;1812731;78;22341;-80
2020/12/13 04:12:38;;;;;;;32.80;15.15;;;;;;;5.40;89.02;98100.52;1807026;78;21157;-79
2020/12/13 04:15:05;;;;;;;43.92;18.77;;;;;;;5.41;89.12;98099.62;1812518;78;21176;-79
2020/12/13 04:17:32;;;;;;;46.45;22.07;;;;;;;5.44;89.26;98102.14;1805298;78;21156;-80
2020/12/13 04:20:00;;;;;;;47.17;22.77;;;;;;;5.49;89.22;98113.20;1811150;77;21132;-80
2020/12/13 04:22:27;;;;;;;44.25;20.68;;;;;;;5.51;89.17;98111.44;1805191;78;21544;-80
2020/12/13 04:24:55;;;;;;;52.45;27.35;;;;;;;5.56;88.95;98114.78;1814077;78;21224;-79
2020/12/13 04:27:22;;;;;;;56.33;28.98;;;;;;;5.58;88.98;98122.04;1804218;78;21555;-80
2020/12/13 04:29:50;;;;;;;48.38;23.90;;;;;;;5.60;88.93;98121.56;1808786;78;21149;-80
2020/12/13 04:32:18;;;;;;;50.45;25.32;;;;;;;5.62;88.82;98117.23;1805615;78;22123;-79
2020/12/13 04:34:45;;;;;;;39.45;20.70;;;;;;;5.63;89.08;98116.78;1812327;78;21450;-80
2020/12/13 04:37:13;;;;;;;41.18;20.48;;;;;;;5.60;88.70;98120.28;1814669;78;21117;-79
2020/12/13 04:39:40;;;;;;;39.70;18.02;;;;;;;5.56;89.02;98114.78;1813356;78;21288;-80
2020/12/13 04:42:08;;;;;;;37.73;18.20;;;;;;;5.56;89.17;98119.48;1807851;78;21136;-79
2020/12/13 04:44:37;;;;;;;39.45;18.98;;;;;;;5.53;89.15;98115.70;1810864;78;21186;-79
2020/12/13 04:47:07;;;;;;;38.53;18.40;;;;;;;5.50;89.31;98123.93;1807576;78;21255;-80
2020/12/13 04:49:36;;;;;;;39.08;18.70;;;;;;;5.41;89.59;98118.50;1809426;78;21738;-80
2020/12/13 04:52:04;;;;;;;37.58;19.25;;;;;;;5.40;89.42;98128.42;1812466;78;21141;-80
2020/12/13 04:54:31;;;;;;;40.40;19.50;;;;;;;5.40;89.31;98126.29;1813341;78;21148;-79
2020/12/13 04:56:59;;;;;;;39.88;19.30;;;;;;;5.39;88.88;98124.13;1806718;78;21172;-80
2020/12/13 04:59:27;;;;;;;41.28;19.90;;;;;;;5.36;89.33;98130.20;1815278;78;21148;-79
2020/12/13 05:01:55;;;;;;;41.63;17.32;;;;;;;5.33;89.57;98128.11;1774327;78;21114;-80
2020/12/13 05:04:22;;;;;;;41.37;19.07;;;;;;;5.31;89.58;98138.48;1804516;78;21290;-80
2020/12/13 05:06:50;;;;;;;41.40;17.65;;;;;;;5.32;89.30;98135.45;1806519;78;21267;-79
2020/12/13 05:09:18;;;;;;;36.95;18.42;;;;;;;5.33;88.77;98130.69;1812089;78;21227;-79
2020/12/13 05:11:47;;;;;;;42.43;17.20;;;;;;;5.31;89.00;98135.90;1807224;78;21102;-79
2020/12/13 05:14:14;;;;;;;42.53;18.80;;;;;;;5.29;89.97;98135.08;1806900;78;21160;-80
2020/12/13 05:16:42;;;;;;;34.33;16.32;;;;;;;5.30;89.75;98134.63;1808337;78;21106;-80
2020/12/13 05:19:10;;;;;;;37.73;17.55;;;;;;;5.31;89.69;98133.73;1809108;78;21160;-79
2020/12/13 05:21:38;;;;;;;38.23;17.92;;;;;;;5.33;89.60;98130.69;1805096;78;21294;-80
2020/12/13 05:24:06;;;;;;;40.10;18.00;;;;;;;5.38;89.63;98125.02;1810332;78;21156;-79
2020/12/13 05:26:34;;;;;;;44.30;18.15;;;;;;;5.39;89.59;98124.13;1787999;78;21158;-79
2020/12/13 05:29:05;;;;;;;37.05;17.48;;;;;;;5.43;89.54;98125.80;1811420;78;22172;-78
2020/12/13 05:31:41;;;;;;;36.65;18.02;;;;;;;5.48;89.27;98136.00;1811264;78;21141;-78
2020/12/13 05:34:14;;;;;;;36.17;17.65;;;;;;;5.48;89.37;98136.84;1805676;78;21159;-79
2020/12/13 05:36:44;;;;;;;36.48;17.00;;;;;;;5.53;89.07;98138.03;1806456;78;21107;-79
2020/12/13 05:39:12;;;;;;;40.48;17.55;;;;;;;5.54;89.17;98142.33;1804776;78;21144;-78
2020/12/13 05:41:40;;;;;;;38.30;19.48;;;;;;;5.55;88.97;98144.00;1811564;78;21663;-79
2020/12/13 05:47:17;;;;;;;41.40;20.05;;;;;;;5.60;89.19;98146.06;1895729;75;22890;-82
2020/12/13 05:52:27;;;;;;;38.08;18.80;;;;;;;5.50;88.70;98144.55;1895802;75;21570;-79
2020/12/13 05:54:55;;;;;;;38.60;19.52;;;;;;;5.48;88.82;98142.45;1809239;78;21604;-80
2020/12/13 05:57:23;;;;;;;42.38;20.10;;;;;;;5.45;88.98;98147.65;1848355;77;21577;-78
2020/12/13 05:59:50;;;;;;;38.30;19.62;;;;;;;5.39;89.55;98153.77;1850129;77;21586;-79
2020/12/13 06:02:21;;;;;;;41.18;19.45;;;;;;;5.35;89.43;98158.58;1845998;77;21154;-79
2020/12/13 06:04:54;;;;;;;44.55;21.23;;;;;;;5.33;88.81;98162.49;1848550;77;21149;-80
2020/12/13 06:07:23;;;;;;;38.73;18.05;;;;;;;5.26;90.04;98163.92;1847510;77;21161;-80
2020/12/13 06:09:54;;;;;;;39.55;17.37;;;;;;;5.28;89.11;98164.74;1846360;77;21636;-80
2020/12/13 06:12:25;;;;;;;38.73;19.17;;;;;;;5.24;89.77;98174.25;1848341;77;21153;-80
2020/12/13 06:14:58;;;;;;;39.85;17.75;;;;;;;5.21;90.03;98176.88;1825190;78;21178;-79
2020/12/13 06:17:33;;;;;;;32.23;15.93;;;;;;;5.29;89.52;98167.30;1800358;78;23369;-78
2020/12/13 06:20:01;;;;;;;35.55;17.27;;;;;;;5.21;90.20;98179.45;1796996;79;21123;-81
2020/12/13 06:22:29;;;;;;;35.00;16.45;;;;;;;5.22;90.37;98177.30;1801013;79;21153;-79
2020/12/13 06:24:57;;;;;;;42.27;17.90;;;;;;;5.21;90.35;98175.58;1715119;82;21197;-79
2020/12/13 06:27:24;;;;;;;37.17;17.00;;;;;;;5.26;90.04;98176.36;1745216;82;21185;-80
2020/12/13 06:29:53;;;;;;;39.70;18.82;;;;;;;5.26;90.31;98187.95;1802099;79;21177;-80
2020/12/13 06:32:21;;;;;;;36.53;17.87;;;;;;;5.25;90.43;98190.14;1764494;79;21495;-80
2020/12/13 06:34:48;;;;;;;35.92;16.87;;;;;;;5.31;90.37;98187.86;1797751;79;21303;-80
2020/12/13 06:37:17;;;;;;;38.33;17.27;;;;;;;5.32;90.25;98195.57;1800878;79;21160;-80
2020/12/13 06:39:44;;;;;;;40.33;18.20;;;;;;;5.34;90.42;98194.27;1781126;79;21142;-79
2020/12/13 06:42:13;;;;;;;36.77;17.40;;;;;;;5.34;90.41;98195.11;1800555;79;21256;-80
2020/12/13 06:44:41;;;;;;;38.33;17.60;;;;;;;5.42;90.11;98209.59;1782913;79;21157;-79
2020/12/13 06:47:24;;;;;;;38.17;19.35;;;;;;;5.42;90.13;98215.59;1802712;79;21652;-80
2020/12/13 06:49:52;;;;;;;47.78;22.15;;;;;;;5.48;89.74;98215.92;1800725;79;21509;-79
2020/12/13 06:52:33;;;;;;;42.17;19.45;;;;;;;5.38;90.16;98213.50;1803670;79;21160;-81
2020/12/13 06:55:07;;;;;;;40.12;20.10;;;;;;;5.46;89.51;98218.52;1798627;79;21163;-80
2020/12/13 06:57:36;;;;;;;40.88;19.40;;;;;;;5.45;89.53;98214.67;1798041;79;21185;-84
2020/12/13 07:00:09;;;;;;;40.70;19.65;;;;;;;5.46;89.28;98215.10;1745081;82;21202;-79
2020/12/13 07:02:56;;;;;;;45.15;17.77;;;;;;;5.41;89.52;98220.31;1800329;79;21140;-81
2020/12/13 07:05:47;;;;;;;41.35;16.95;;;;;;;5.41;89.28;98220.31;1744427;82;21165;-84
2020/12/13 07:08:20;;;;;;;36.30;16.73;;;;;;;5.36;89.97;98227.30;1745215;82;21166;-80
2020/12/13 07:10:51;;;;;;;39.53;17.95;;;;;;;5.34;90.07;98229.91;1809207;79;21154;-80
2020/12/13 07:13:22;;;;;;;38.63;17.95;;;;;;;5.39;89.91;98237.54;1777684;79;21181;-81
2020/12/13 07:18:32;;;;;;;38.67;19.07;;;;;;;5.48;90.16;98246.86;1799099;78;23135;-79
2020/12/13 07:21:00;;;;;;;41.13;18.40;;;;;;;5.45;89.95;98257.20;1812432;78;21120;-80
2020/12/13 07:23:27;;;;;;;37.63;17.95;;;;;;;5.48;89.78;98250.72;1806048;78;21162;-79
2020/12/13 07:25:56;;;;;;;47.67;19.30;;;;;;;5.45;89.92;98252.92;1806192;78;21121;-80
2020/12/13 07:28:24;;;;;;;44.73;20.45;;;;;;;5.45;90.24;98250.77;1813553;78;21167;-80
2020/12/13 07:30:55;;;;;;;43.30;18.65;;;;;;;5.44;90.52;98255.53;1815205;78;21125;-80
2020/12/13 07:33:23;;;;;;;41.55;18.20;;;;;;;5.51;89.82;98253.23;1782849;78;21117;-80
2020/12/13 07:35:51;;;;;;;39.95;19.60;;;;;;;5.58;89.57;98254.83;1807342;78;22349;-79
2020/12/13 07:38:18;;;;;;;42.98;20.82;;;;;;;5.56;89.68;98261.74;1811374;78;22592;-80
2020/12/13 07:40:46;;;;;;;47.58;21.02;;;;;;;5.55;89.76;98266.05;1806287;78;21632;-78
2020/12/13 07:43:13;;;;;;;40.17;21.35;;;;;;;5.59;89.47;98262.99;1805560;78;21169;-80
2020/12/13 07:45:40;;;;;;;48.15;21.77;;;;;;;5.53;89.96;98266.52;1812013;78;21117;-79
2020/12/13 07:48:08;;;;;;;41.55;20.43;;;;;;;5.54;89.71;98255.31;1804436;78;21565;-82
2020/12/13 07:50:48;;;;;;;42.30;20.30;;;;;;;5.54;89.76;98265.63;1808589;78;21157;-79
2020/12/13 07:53:26;;;;;;;38.17;19.07;;;;;;;5.54;90.38;98273.81;1806900;78;21149;-79
2020/12/13 07:55:54;;;;;;;39.13;18.35;;;;;;;5.53;90.36;98275.97;1807376;78;21160;-79
2020/12/13 07:58:22;;;;;;;42.10;18.02;;;;;;;5.54;89.91;98275.95;1805949;78;21651;-79
2020/12/13 08:00:50;;;;;;;46.60;20.32;;;;;;;5.56;89.83;98276.77;1810700;78;21995;-78
2020/12/13 08:03:17;;;;;;;38.42;17.82;;;;;;;5.54;90.03;98280.27;1810254;78;21118;-80
2020/12/13 08:05:45;;;;;;;38.88;17.48;;;;;;;5.52;90.20;98278.98;1816193;78;21691;-80
2020/12/13 08:08:12;;;;;;;41.13;18.70;;;;;;;5.62;89.81;98287.41;1813744;78;21494;-81
2020/12/13 08:10:40;;;;;;;39.92;18.85;;;;;;;5.66;89.68;98290.34;1804702;78;21169;-79
2020/12/13 08:13:07;;;;;;;38.23;17.62;;;;;;;5.73;89.84;98289.37;1808533;78;21619;-80
2020/12/13 08:15:35;;;;;;;39.48;17.75;;;;;;;5.80;89.78;98290.54;1806628;78;21159;-81
2020/12/13 08:18:10;;;;;;;34.65;16.23;;;;;;;5.86;89.71;98286.55;1797642;78;22336;-80
2020/12/13 08:20:42;;;;;;;34.00;16.12;;;;;;;5.83;89.36;98287.47;1796885;79;21160;-81
2020/12/13 08:23:13;;;;;;;33.60;16.40;;;;;;;5.96;89.30;98288.11;1799349;79;21149;-81
2020/12/13 08:25:41;;;;;;;36.98;16.07;;;;;;;5.98;89.13;98293.64;1795592;79;21157;-79
2020/12/13 08:28:12;;;;;;;36.38;17.90;;;;;;;5.97;88.91;98288.08;1797941;79;21190;-79
2020/12/13 08:30:40;;;;;;;32.28;17.15;;;;;;;6.03;89.02;98295.27;1797445;79;21153;-78
2020/12/13 08:33:10;;;;;;;38.78;18.15;;;;;;;6.14;88.90;98298.50;1796111;79;21610;-79
2020/12/13 08:35:38;;;;;;;37.60;18.10;;;;;;;6.22;88.98;98302.22;1797217;79;21153;-80
2020/12/13 08:38:06;;;;;;;33.70;18.50;;;;;;;6.28;88.45;98304.68;1797108;79;22003;-81
2020/12/13 08:40:39;;;;;;;39.27;19.70;;;;;;;6.29;88.44;98302.08;1797145;79;21610;-79
2020/12/13 08:43:18;;;;;;;33.02;17.05;;;;;;;6.32;88.20;98305.02;1869913;74;22938;-80
2020/12/13 08:45:55;;;;;;;38.15;18.20;;;;;;;6.28;88.62;98303.39;1872382;75;21158;-80
2020/12/13 08:48:31;;;;;;;38.70;17.07;;;;;;;6.32;88.65;98307.61;1800434;78;23463;-78
2020/12/13 08:51:10;;;;;;;34.95;16.12;;;;;;;6.33;88.73;98310.61;1818756;77;22297;-81
2020/12/13 08:53:38;;;;;;;38.10;16.55;;;;;;;6.40;88.77;98307.45;1818712;77;21621;-81
2020/12/13 08:56:10;;;;;;;37.55;17.73;;;;;;;6.45;88.53;98309.51;1744994;82;21186;-81
2020/12/13 08:58:57;;;;;;;40.10;17.55;;;;;;;6.46;88.42;98315.06;1771335;80;21301;-82
2020/12/13 09:01:25;;;;;;;38.23;16.23;;;;;;;6.46;87.80;98313.33;1771824;80;21503;-80
2020/12/13 09:03:53;;;;;;;38.88;16.37;;;;;;;6.55;88.08;98314.44;1769143;80;21717;-81
2020/12/13 09:06:30;;;;;;;36.42;17.85;;;;;;;6.66;88.15;98315.93;1774376;80;21220;-80
2020/12/13 09:09:13;;;;;;;36.08;16.37;;;;;;;6.70;88.07;98310.66;1773438;80;21168;-80
2020/12/13 09:11:41;;;;;;;31.73;16.12;;;;;;;6.70;86.90;98307.23;1772449;80;21137;-80
2020/12/13 09:14:09;;;;;;;33.70;16.02;;;;;;;6.77;87.30;98310.94;1744939;82;21457;-81
2020/12/13 09:16:37;;;;;;;41.40;18.35;;;;;;;6.85;86.68;98312.52;1770029;80;21612;-80
2020/12/13 09:19:12;;;;;;;34.98;16.75;;;;;;;6.83;87.05;98309.95;1760750;81;21176;-80
2020/12/13 09:21:53;;;;;;;38.48;17.77;;;;;;;6.89;87.32;98311.56;1772020;80;21636;-80
2020/12/13 09:24:25;;;;;;;38.25;17.65;;;;;;;6.92;86.96;98312.34;1778053;80;22419;-81
2020/12/13 09:27:14;;;;;;;35.60;16.80;;;;;;;6.94;86.83;98305.83;1773016;80;21523;-82
2020/12/13 09:29:41;;;;;;;37.38;17.52;;;;;;;6.89;86.38;98300.77;1773261;80;21137;-80
2020/12/13 09:32:09;;;;;;;34.25;16.00;;;;;;;7.04;86.49;98303.42;1774162;80;21157;-80
2020/12/13 09:34:38;;;;;;;33.95;14.55;;;;;;;6.86;85.83;98303.41;1775509;80;21176;-80
2020/12/13 09:37:18;;;;;;;28.05;13.05;;;;;;;6.90;85.56;98298.61;1744282;82;21607;-81
2020/12/13 09:39:46;;;;;;;32.23;13.40;;;;;;;6.90;85.42;98298.61;1773214;80;21755;-81
2020/12/13 09:42:16;;;;;;;27.80;13.08;;;;;;;6.96;85.53;98294.59;1744435;82;21662;-79
2020/12/13 09:44:47;;;;;;;34.27;13.65;;;;;;;6.97;85.54;98310.94;1743182;82;21185;-80
2020/12/13 09:47:12;;;;;;;27.70;13.93;;;;;;;6.92;85.38;98305.02;1747430;82;21931;-81
2020/12/13 09:49:40;;;;;;;26.90;13.28;;;;;;;7.00;86.45;98308.72;1772216;80;21276;-81
2020/12/13 09:52:08;;;;;;;29.85;13.30;;;;;;;6.96;86.11;98300.17;1773098;80;21176;-80
2020/12/13 09:54:35;;;;;;;29.70;15.30;;;;;;;6.92;85.55;98314.05;1750056;82;21222;-80
2020/12/13 09:57:02;;;;;;;31.82;16.32;;;;;;;7.06;85.62;98307.28;1771464;80;21563;-81
2020/12/13 09:59:29;;;;;;;29.00;14.63;;;;;;;7.03;85.51;98302.20;1750068;82;21646;-79
2020/12/13 10:01:56;;;;;;;27.70;14.28;;;;;;;7.00;85.46;98312.14;1772470;80;21164;-81
2020/12/13 10:04:24;;;;;;;34.23;15.83;;;;;;;7.04;85.32;98306.46;1749907;82;21708;-80
2020/12/13 10:09:36;;;;;;;;;;;;;;;6.96;85.53;98302.77;1752026;82;21173;-81
2020/12/13 10:12:04;;;;;;;25.43;12.05;;;;;;;7.00;85.53;98303.55;1780084;80;20198;-80
2020/12/13 10:14:31;;;;;;;26.05;11.65;;;;;;;7.05;85.54;98299.97;1749959;81;21626;-81
2020/12/13 10:17:00;;;;;;;24.02;11.97;;;;;;;7.05;85.66;98299.13;1750846;80;21180;-81
2020/12/13 10:19:28;;;;;;;23.18;12.40;;;;;;;7.08;85.17;98305.50;1777361;80;21168;-80
2020/12/13 10:21:55;;;;;;;25.25;12.40;;;;;;;7.02;85.12;98302.61;1771206;80;21173;-81
2020/12/13 10:24:23;;;;;;;29.15;13.85;;;;;;;7.19;85.52;98302.69;1773650;80;21569;-80
2020/12/13 10:26:50;;;;;;;27.58;14.35;;;;;;;7.18;85.07;98303.10;1772069;80;21191;-80
2020/12/13 10:29:17;;;;;;;24.37;12.28;;;;;;;7.23;84.71;98301.72;1748817;82;21475;-80
2020/12/13 10:31:46;;;;;;;28.27;13.72;;;;;;;7.20;84.79;98297.45;1771896;80;21501;-82
2020/12/13 10:34:16;;;;;;;27.40;13.70;;;;;;;7.28;84.76;98300.73;1749357;82;21166;-82
2020/12/13 10:36:45;;;;;;;31.62;14.58;;;;;;;7.28;84.79;98309.77;1772302;80;21713;-80
2020/12/13 10:39:19;;;;;;;29.27;13.98;;;;;;;7.28;84.68;98313.66;1769042;80;21633;-79
2020/12/13 10:41:43;;;;;;;36.93;14.85;;;;;;;7.36;84.64;98306.55;1771415;80;21180;-80
2020/12/13 10:44:10;;;;;;;31.77;14.73;;;;;;;7.35;84.79;98306.59;1771971;80;22316;-80
2020/12/13 10:46:39;;;;;;;30.80;13.68;;;;;;;7.35;84.57;98306.59;1769339;80;21258;-79
2020/12/13 10:49:15;;;;;;;27.30;13.40;;;;;;;7.39;84.89;98299.61;1884401;75;22592;-77
2020/12/13 10:51:43;;;;;;;34.13;14.75;;;;;;;7.45;84.75;98302.88;1878447;75;21609;-80
2020/12/13 10:54:11;;;;;;;29.82;13.65;;;;;;;7.50;84.93;98309.22;1879763;75;21123;-79
2020/12/13 10:56:39;;;;;;;29.32;14.03;;;;;;;7.61;85.08;98309.80;1879309;75;21147;-80
2020/12/13 10:59:06;;;;;;;33.50;14.93;;;;;;;7.62;84.88;98309.35;1879894;75;21135;-80
2020/12/13 11:01:33;;;;;;;32.50;14.07;;;;;;;7.59;84.76;98307.70;1878383;75;21151;-80
2020/12/13 11:04:00;;;;;;;31.52;16.80;;;;;;;7.61;85.08;98305.92;1879883;75;21580;-79
2020/12/13 11:06:29;;;;;;;35.28;16.80;;;;;;;7.70;84.68;98304.83;1878412;75;21567;-81
2020/12/13 11:08:56;;;;;;;34.10;16.42;;;;;;;7.73;84.23;98308.19;1878193;75;21671;-79
2020/12/13 11:11:24;;;;;;;35.45;16.95;;;;;;;7.76;84.33;98309.42;1878302;75;21602;-79
2020/12/13 11:13:51;;;;;;;36.17;15.75;;;;;;;7.71;83.96;98305.24;1878358;75;21140;-80
2020/12/13 11:16:18;;;;;;;34.23;16.07;;;;;;;7.68;84.22;98312.65;1880101;75;21151;-79
2020/12/13 11:18:45;;;;;;;32.15;14.58;;;;;;;7.75;83.81;98309.45;1878757;75;21626;-80
2020/12/13 11:21:13;;;;;;;32.83;14.58;;;;;;;7.70;83.96;98305.70;1877692;75;21155;-79
2020/12/13 11:23:40;;;;;;;34.90;14.90;;;;;;;7.69;84.10;98301.40;1879693;75;21257;-79
2020/12/13 11:26:08;;;;;;;32.03;14.13;;;;;;;7.75;83.81;98302.53;1878396;75;21144;-78
2020/12/13 11:28:35;;;;;;;31.95;13.28;;;;;;;7.79;83.60;98304.59;1880420;75;21120;-79
2020/12/13 11:31:03;;;;;;;33.02;13.95;;;;;;;7.73;83.87;98300.42;1878626;75;21104;-79
2020/12/13 11:33:30;;;;;;;34.00;16.55;;;;;;;7.82;83.45;98307.54;1879586;75;21139;-80
2020/12/13 11:35:57;;;;;;;36.20;16.60;;;;;;;7.85;84.00;98307.02;1877772;75;22056;-80
2020/12/13 11:38:25;;;;;;;34.40;16.07;;;;;;;7.95;83.87;98307.63;1877761;75;21159;-80
2020/12/13 11:40:52;;;;;;;32.42;15.23;;;;;;;7.90;82.81;98309.05;1874544;75;22247;-79
2020/12/13 11:43:20;;;;;;;36.33;15.65;;;;;;;7.89;83.18;98310.38;1878290;75;21496;-79
2020/12/13 11:45:47;;;;;;;37.38;15.98;;;;;;;7.86;83.22;98315.63;1882334;75;21112;-80
2020/12/13 11:48:14;;;;;;;34.05;13.50;;;;;;;7.91;83.35;98305.55;1877495;75;21088;-79
2020/12/13 11:50:43;;;;;;;28.00;12.53;;;;;;;7.85;83.65;98315.23;1879797;75;21258;-79